6L4

Logan County Airport

Logan, West Virginia, USA
METAR K6L4 181335Z AUTO 27005KT 10SM SCT009 BKN015 OVC021 04/04 A3008 RMK AO2
Observed Flight Rules
Jan-18 @ 13:35 UTC (15 minutes ago) Marginal Visual Flight Rules
Wind Visibility Clouds
270° at 5 knots 10 miles
  • Scattered at 900' AGL
  • Broken at 1,500' AGL
  • Overcast at 2,100' AGL
Temperatures Readings
Current 4°C / 39°F
Dewpoint 4°C / 39°F
Humidity 100%
Altimeter 30.08" Hg
Pressure 1018.62 hPa
Elevation 508
METAR K6L4 181335Z AUTO 27005KT 10SM SCT009 BKN015 OVC021 04/04 A3008 RMK AO2
Observed Flight Rules
Jan-18 @ 13:35 UTC
(15 minutes ago)
MVFR
Wind Visibility
270° at 5 knots 10 miles
Clouds
  • Scattered at 900' AGL
  • Broken at 1,500' AGL
  • Overcast at 2,100' AGL
Temperature Dewpoint
4°C / 39°F 4°C / 39°F
Humidity Altimeter Pressure
100% 30.08" Hg 1018.62 hPa